sensor_id;sensor_type;location;lat;lon;timestamp;P1;durP1;ratioP1;P2;durP2;ratioP2
10170;SDS011;5127;50.922;6.988;2023-02-26T00:00:39;5.60;;;2.13;;
10170;SDS011;5127;50.922;6.988;2023-02-26T00:03:06;2.93;;;1.67;;
10170;SDS011;5127;50.922;6.988;2023-02-26T00:05:33;4.97;;;1.57;;
10170;SDS011;5127;50.922;6.988;2023-02-26T00:08:02;6.07;;;2.13;;
10170;SDS011;5127;50.922;6.988;2023-02-26T00:10:30;2.73;;;1.50;;
10170;SDS011;5127;50.922;6.988;2023-02-26T00:12:58;4.03;;;1.80;;
10170;SDS011;5127;50.922;6.988;2023-02-26T00:15:26;3.53;;;1.53;;
10170;SDS011;5127;50.922;6.988;2023-02-26T00:17:54;4.03;;;1.70;;
10170;SDS011;5127;50.922;6.988;2023-02-26T00:20:28;3.90;;;1.57;;
10170;SDS011;5127;50.922;6.988;2023-02-26T00:22:55;3.43;;;1.87;;
10170;SDS011;5127;50.922;6.988;2023-02-26T00:25:24;3.90;;;1.43;;
10170;SDS011;5127;50.922;6.988;2023-02-26T00:27:52;4.23;;;1.90;;
10170;SDS011;5127;50.922;6.988;2023-02-26T00:30:20;5.83;;;1.43;;
10170;SDS011;5127;50.922;6.988;2023-02-26T00:32:47;1.83;;;1.50;;
10170;SDS011;5127;50.922;6.988;2023-02-26T00:35:16;2.70;;;1.40;;
10170;SDS011;5127;50.922;6.988;2023-02-26T00:37:57;2.00;;;1.30;;
10170;SDS011;5127;50.922;6.988;2023-02-26T00:40:34;3.50;;;1.50;;
10170;SDS011;5127;50.922;6.988;2023-02-26T00:43:06;2.93;;;1.20;;
10170;SDS011;5127;50.922;6.988;2023-02-26T00:45:35;2.43;;;1.37;;
10170;SDS011;5127;50.922;6.988;2023-02-26T00:48:14;5.63;;;1.50;;
10170;SDS011;5127;50.922;6.988;2023-02-26T00:50:50;3.80;;;1.00;;
10170;SDS011;5127;50.922;6.988;2023-02-26T00:53:26;3.33;;;1.27;;
10170;SDS011;5127;50.922;6.988;2023-02-26T00:55:58;3.57;;;1.20;;
10170;SDS011;5127;50.922;6.988;2023-02-26T00:58:25;5.47;;;1.57;;
10170;SDS011;5127;50.922;6.988;2023-02-26T01:00:52;2.93;;;1.83;;
10170;SDS011;5127;50.922;6.988;2023-02-26T01:03:20;2.67;;;1.20;;
10170;SDS011;5127;50.922;6.988;2023-02-26T01:05:48;4.27;;;1.70;;
10170;SDS011;5127;50.922;6.988;2023-02-26T01:08:17;3.23;;;1.30;;
10170;SDS011;5127;50.922;6.988;2023-02-26T01:10:50;3.80;;;1.20;;
10170;SDS011;5127;50.922;6.988;2023-02-26T01:13:19;2.63;;;1.13;;
10170;SDS011;5127;50.922;6.988;2023-02-26T01:15:48;2.30;;;1.20;;
10170;SDS011;5127;50.922;6.988;2023-02-26T01:18:19;3.23;;;1.20;;
10170;SDS011;5127;50.922;6.988;2023-02-26T01:20:53;2.70;;;1.20;;
10170;SDS011;5127;50.922;6.988;2023-02-26T01:23:24;2.87;;;1.47;;
10170;SDS011;5127;50.922;6.988;2023-02-26T01:25:57;2.53;;;1.10;;
10170;SDS011;5127;50.922;6.988;2023-02-26T01:28:29;3.23;;;1.30;;
10170;SDS011;5127;50.922;6.988;2023-02-26T01:30:58;3.03;;;1.37;;
10170;SDS011;5127;50.922;6.988;2023-02-26T01:33:31;2.73;;;1.30;;
10170;SDS011;5127;50.922;6.988;2023-02-26T01:36:06;4.47;;;1.20;;
10170;SDS011;5127;50.922;6.988;2023-02-26T01:38:35;4.03;;;1.33;;
10170;SDS011;5127;50.922;6.988;2023-02-26T01:41:12;2.67;;;1.30;;
10170;SDS011;5127;50.922;6.988;2023-02-26T01:43:52;4.07;;;1.30;;
10170;SDS011;5127;50.922;6.988;2023-02-26T01:46:30;4.07;;;1.33;;
10170;SDS011;5127;50.922;6.988;2023-02-26T01:49:02;1.50;;;1.20;;
10170;SDS011;5127;50.922;6.988;2023-02-26T01:51:41;2.70;;;1.17;;
10170;SDS011;5127;50.922;6.988;2023-02-26T01:54:11;5.33;;;1.30;;
10170;SDS011;5127;50.922;6.988;2023-02-26T01:56:39;4.17;;;1.43;;
10170;SDS011;5127;50.922;6.988;2023-02-26T01:59:10;2.47;;;0.90;;
10170;SDS011;5127;50.922;6.988;2023-02-26T02:01:41;2.07;;;1.30;;
10170;SDS011;5127;50.922;6.988;2023-02-26T02:04:09;2.07;;;1.30;;
10170;SDS011;5127;50.922;6.988;2023-02-26T02:06:40;3.27;;;1.10;;
10170;SDS011;5127;50.922;6.988;2023-02-26T02:09:08;4.13;;;1.13;;
10170;SDS011;5127;50.922;6.988;2023-02-26T02:11:37;2.27;;;1.20;;
10170;SDS011;5127;50.922;6.988;2023-02-26T02:14:18;4.23;;;1.10;;
10170;SDS011;5127;50.922;6.988;2023-02-26T02:16:52;3.93;;;1.20;;
10170;SDS011;5127;50.922;6.988;2023-02-26T02:22:42;1.90;;;1.00;;
10170;SDS011;5127;50.922;6.988;2023-02-26T02:28:19;2.07;;;1.17;;
10170;SDS011;5127;50.922;6.988;2023-02-26T02:31:00;3.37;;;1.13;;
10170;SDS011;5127;50.922;6.988;2023-02-26T02:33:33;4.43;;;1.33;;
10170;SDS011;5127;50.922;6.988;2023-02-26T02:36:09;3.00;;;1.23;;
10170;SDS011;5127;50.922;6.988;2023-02-26T02:38:43;2.73;;;1.37;;
10170;SDS011;5127;50.922;6.988;2023-02-26T02:41:15;2.57;;;1.33;;
10170;SDS011;5127;50.922;6.988;2023-02-26T02:43:46;3.87;;;1.27;;
10170;SDS011;5127;50.922;6.988;2023-02-26T02:46:18;5.23;;;1.60;;
10170;SDS011;5127;50.922;6.988;2023-02-26T02:48:51;2.33;;;1.30;;
10170;SDS011;5127;50.922;6.988;2023-02-26T02:51:24;3.07;;;1.30;;
10170;SDS011;5127;50.922;6.988;2023-02-26T02:53:59;4.67;;;1.63;;
10170;SDS011;5127;50.922;6.988;2023-02-26T02:56:32;2.87;;;1.20;;
10170;SDS011;5127;50.922;6.988;2023-02-26T02:59:02;3.27;;;1.40;;
10170;SDS011;5127;50.922;6.988;2023-02-26T03:01:37;2.03;;;1.33;;
10170;SDS011;5127;50.922;6.988;2023-02-26T03:04:08;2.37;;;1.20;;
10170;SDS011;5127;50.922;6.988;2023-02-26T03:06:37;4.10;;;1.20;;
10170;SDS011;5127;50.922;6.988;2023-02-26T03:09:05;2.70;;;1.27;;
10170;SDS011;5127;50.922;6.988;2023-02-26T03:11:34;1.70;;;1.20;;
10170;SDS011;5127;50.922;6.988;2023-02-26T03:14:03;2.60;;;1.07;;
10170;SDS011;5127;50.922;6.988;2023-02-26T03:16:39;3.07;;;1.40;;
10170;SDS011;5127;50.922;6.988;2023-02-26T03:19:22;1.73;;;1.20;;
10170;SDS011;5127;50.922;6.988;2023-02-26T03:22:00;3.70;;;1.20;;
10170;SDS011;5127;50.922;6.988;2023-02-26T03:24:50;2.17;;;1.20;;
10170;SDS011;5127;50.922;6.988;2023-02-26T03:27:23;1.80;;;1.20;;
10170;SDS011;5127;50.922;6.988;2023-02-26T03:29:55;2.93;;;1.13;;
10170;SDS011;5127;50.922;6.988;2023-02-26T03:32:33;1.87;;;1.13;;
10170;SDS011;5127;50.922;6.988;2023-02-26T03:35:10;2.33;;;1.10;;
10170;SDS011;5127;50.922;6.988;2023-02-26T03:37:41;3.30;;;1.60;;
10170;SDS011;5127;50.922;6.988;2023-02-26T03:40:14;3.73;;;1.40;;
10170;SDS011;5127;50.922;6.988;2023-02-26T03:42:45;1.63;;;1.20;;
10170;SDS011;5127;50.922;6.988;2023-02-26T03:45:17;3.90;;;1.60;;
10170;SDS011;5127;50.922;6.988;2023-02-26T03:47:51;3.13;;;1.20;;
10170;SDS011;5127;50.922;6.988;2023-02-26T03:50:23;2.93;;;1.20;;
10170;SDS011;5127;50.922;6.988;2023-02-26T03:53:16;2.37;;;1.33;;
10170;SDS011;5127;50.922;6.988;2023-02-26T03:55:52;3.20;;;1.00;;
10170;SDS011;5127;50.922;6.988;2023-02-26T03:58:43;6.07;;;1.20;;
10170;SDS011;5127;50.922;6.988;2023-02-26T04:01:34;1.50;;;1.13;;
10170;SDS011;5127;50.922;6.988;2023-02-26T04:04:09;4.40;;;1.40;;
10170;SDS011;5127;50.922;6.988;2023-02-26T04:06:40;3.03;;;1.30;;
10170;SDS011;5127;50.922;6.988;2023-02-26T04:09:09;4.67;;;1.17;;
10170;SDS011;5127;50.922;6.988;2023-02-26T04:11:36;2.77;;;1.33;;
10170;SDS011;5127;50.922;6.988;2023-02-26T04:14:05;3.30;;;1.20;;
10170;SDS011;5127;50.922;6.988;2023-02-26T04:16:37;2.77;;;1.90;;
10170;SDS011;5127;50.922;6.988;2023-02-26T04:19:04;2.93;;;1.20;;
10170;SDS011;5127;50.922;6.988;2023-02-26T04:21:33;2.40;;;0.90;;
10170;SDS011;5127;50.922;6.988;2023-02-26T04:24:00;3.93;;;1.00;;
10170;SDS011;5127;50.922;6.988;2023-02-26T04:26:27;2.23;;;1.10;;
10170;SDS011;5127;50.922;6.988;2023-02-26T04:28:54;2.67;;;1.30;;
10170;SDS011;5127;50.922;6.988;2023-02-26T04:31:22;2.43;;;1.07;;
10170;SDS011;5127;50.922;6.988;2023-02-26T04:33:49;2.67;;;1.20;;
10170;SDS011;5127;50.922;6.988;2023-02-26T04:36:16;2.83;;;1.20;;
10170;SDS011;5127;50.922;6.988;2023-02-26T04:38:45;3.23;;;1.00;;
10170;SDS011;5127;50.922;6.988;2023-02-26T04:41:12;3.77;;;1.50;;
10170;SDS011;5127;50.922;6.988;2023-02-26T04:43:40;2.27;;;0.97;;
10170;SDS011;5127;50.922;6.988;2023-02-26T04:46:22;2.10;;;1.10;;
10170;SDS011;5127;50.922;6.988;2023-02-26T04:48:49;2.13;;;0.90;;
10170;SDS011;5127;50.922;6.988;2023-02-26T04:51:16;2.20;;;0.90;;
10170;SDS011;5127;50.922;6.988;2023-02-26T04:53:45;2.10;;;0.90;;
10170;SDS011;5127;50.922;6.988;2023-02-26T04:56:12;2.87;;;0.90;;
10170;SDS011;5127;50.922;6.988;2023-02-26T04:58:40;2.33;;;1.00;;
10170;SDS011;5127;50.922;6.988;2023-02-26T05:01:13;1.80;;;1.00;;
10170;SDS011;5127;50.922;6.988;2023-02-26T05:03:41;3.80;;;1.23;;
10170;SDS011;5127;50.922;6.988;2023-02-26T05:06:08;1.90;;;0.80;;
10170;SDS011;5127;50.922;6.988;2023-02-26T05:08:36;2.57;;;1.13;;
10170;SDS011;5127;50.922;6.988;2023-02-26T05:11:08;2.27;;;1.10;;
10170;SDS011;5127;50.922;6.988;2023-02-26T05:13:35;1.47;;;0.90;;
10170;SDS011;5127;50.922;6.988;2023-02-26T05:16:03;1.43;;;0.90;;
10170;SDS011;5127;50.922;6.988;2023-02-26T05:18:31;3.17;;;1.00;;
10170;SDS011;5127;50.922;6.988;2023-02-26T05:20:58;3.07;;;1.17;;
10170;SDS011;5127;50.922;6.988;2023-02-26T05:23:25;1.37;;;0.97;;
10170;SDS011;5127;50.922;6.988;2023-02-26T05:25:53;2.30;;;1.20;;
10170;SDS011;5127;50.922;6.988;2023-02-26T05:28:22;3.23;;;0.90;;
10170;SDS011;5127;50.922;6.988;2023-02-26T05:30:49;2.60;;;1.30;;
10170;SDS011;5127;50.922;6.988;2023-02-26T05:33:17;4.33;;;1.10;;
10170;SDS011;5127;50.922;6.988;2023-02-26T05:35:44;4.50;;;1.27;;
10170;SDS011;5127;50.922;6.988;2023-02-26T05:38:12;2.17;;;1.10;;
10170;SDS011;5127;50.922;6.988;2023-02-26T05:40:39;2.53;;;0.90;;
10170;SDS011;5127;50.922;6.988;2023-02-26T05:43:07;3.33;;;1.00;;
10170;SDS011;5127;50.922;6.988;2023-02-26T05:45:35;3.77;;;1.10;;
10170;SDS011;5127;50.922;6.988;2023-02-26T05:48:02;2.47;;;1.07;;
10170;SDS011;5127;50.922;6.988;2023-02-26T05:50:30;1.67;;;0.80;;
10170;SDS011;5127;50.922;6.988;2023-02-26T05:52:57;1.33;;;1.00;;
10170;SDS011;5127;50.922;6.988;2023-02-26T05:55:24;1.93;;;1.10;;
10170;SDS011;5127;50.922;6.988;2023-02-26T05:57:51;2.97;;;1.20;;
10170;SDS011;5127;50.922;6.988;2023-02-26T06:00:19;3.07;;;1.00;;
10170;SDS011;5127;50.922;6.988;2023-02-26T06:02:47;2.83;;;1.00;;
10170;SDS011;5127;50.922;6.988;2023-02-26T06:05:15;2.23;;;1.00;;
10170;SDS011;5127;50.922;6.988;2023-02-26T06:07:42;1.93;;;1.00;;
10170;SDS011;5127;50.922;6.988;2023-02-26T06:10:10;2.23;;;1.10;;
10170;SDS011;5127;50.922;6.988;2023-02-26T06:12:38;2.13;;;1.03;;
10170;SDS011;5127;50.922;6.988;2023-02-26T06:15:06;4.77;;;1.60;;
10170;SDS011;5127;50.922;6.988;2023-02-26T06:17:34;3.53;;;0.93;;
10170;SDS011;5127;50.922;6.988;2023-02-26T06:20:03;2.57;;;1.10;;
10170;SDS011;5127;50.922;6.988;2023-02-26T06:22:31;2.73;;;1.20;;
10170;SDS011;5127;50.922;6.988;2023-02-26T06:24:59;2.63;;;1.37;;
10170;SDS011;5127;50.922;6.988;2023-02-26T06:27:26;2.73;;;1.10;;
10170;SDS011;5127;50.922;6.988;2023-02-26T06:29:53;1.87;;;1.20;;
10170;SDS011;5127;50.922;6.988;2023-02-26T06:32:20;2.63;;;1.20;;
10170;SDS011;5127;50.922;6.988;2023-02-26T06:34:48;3.47;;;1.30;;
10170;SDS011;5127;50.922;6.988;2023-02-26T06:37:16;3.27;;;1.40;;
10170;SDS011;5127;50.922;6.988;2023-02-26T06:39:43;3.17;;;1.20;;
10170;SDS011;5127;50.922;6.988;2023-02-26T06:42:10;1.40;;;1.10;;
10170;SDS011;5127;50.922;6.988;2023-02-26T06:44:38;2.43;;;1.60;;
10170;SDS011;5127;50.922;6.988;2023-02-26T06:47:05;2.67;;;1.20;;
10170;SDS011;5127;50.922;6.988;2023-02-26T06:49:32;3.37;;;1.10;;
10170;SDS011;5127;50.922;6.988;2023-02-26T06:51:59;1.67;;;1.13;;
10170;SDS011;5127;50.922;6.988;2023-02-26T06:54:28;2.40;;;1.23;;
10170;SDS011;5127;50.922;6.988;2023-02-26T06:56:55;2.60;;;1.30;;
10170;SDS011;5127;50.922;6.988;2023-02-26T06:59:23;2.90;;;1.40;;
10170;SDS011;5127;50.922;6.988;2023-02-26T07:01:50;2.90;;;1.70;;
10170;SDS011;5127;50.922;6.988;2023-02-26T07:04:17;2.13;;;1.30;;
10170;SDS011;5127;50.922;6.988;2023-02-26T07:06:44;4.03;;;1.40;;
10170;SDS011;5127;50.922;6.988;2023-02-26T07:09:11;5.60;;;1.80;;
10170;SDS011;5127;50.922;6.988;2023-02-26T07:11:40;1.93;;;1.60;;
10170;SDS011;5127;50.922;6.988;2023-02-26T07:14:07;1.93;;;1.43;;
10170;SDS011;5127;50.922;6.988;2023-02-26T07:16:34;2.90;;;1.50;;
10170;SDS011;5127;50.922;6.988;2023-02-26T07:19:01;1.53;;;1.43;;
10170;SDS011;5127;50.922;6.988;2023-02-26T07:21:28;2.93;;;1.70;;
10170;SDS011;5127;50.922;6.988;2023-02-26T07:23:56;2.17;;;1.80;;
10170;SDS011;5127;50.922;6.988;2023-02-26T07:26:23;3.07;;;1.90;;
10170;SDS011;5127;50.922;6.988;2023-02-26T07:28:52;2.40;;;1.80;;
10170;SDS011;5127;50.922;6.988;2023-02-26T07:31:19;2.87;;;1.90;;
10170;SDS011;5127;50.922;6.988;2023-02-26T07:33:46;3.20;;;2.03;;
10170;SDS011;5127;50.922;6.988;2023-02-26T07:36:13;3.37;;;2.00;;
10170;SDS011;5127;50.922;6.988;2023-02-26T07:38:41;3.87;;;1.80;;
10170;SDS011;5127;50.922;6.988;2023-02-26T07:41:08;4.20;;;2.20;;
10170;SDS011;5127;50.922;6.988;2023-02-26T07:43:36;2.00;;;1.80;;
10170;SDS011;5127;50.922;6.988;2023-02-26T07:46:04;3.33;;;2.17;;
10170;SDS011;5127;50.922;6.988;2023-02-26T07:48:32;2.30;;;1.97;;
10170;SDS011;5127;50.922;6.988;2023-02-26T07:50:59;5.67;;;1.90;;
10170;SDS011;5127;50.922;6.988;2023-02-26T07:53:26;5.77;;;2.10;;
10170;SDS011;5127;50.922;6.988;2023-02-26T07:55:54;2.33;;;2.10;;
10170;SDS011;5127;50.922;6.988;2023-02-26T07:58:21;5.60;;;2.40;;
10170;SDS011;5127;50.922;6.988;2023-02-26T08:00:48;2.30;;;2.10;;
10170;SDS011;5127;50.922;6.988;2023-02-26T08:03:18;3.33;;;1.90;;
10170;SDS011;5127;50.922;6.988;2023-02-26T08:05:46;2.70;;;2.00;;
10170;SDS011;5127;50.922;6.988;2023-02-26T08:08:13;1.90;;;1.67;;
10170;SDS011;5127;50.922;6.988;2023-02-26T08:10:41;2.27;;;1.90;;
10170;SDS011;5127;50.922;6.988;2023-02-26T08:13:08;1.93;;;1.70;;
10170;SDS011;5127;50.922;6.988;2023-02-26T08:15:35;2.10;;;1.90;;
10170;SDS011;5127;50.922;6.988;2023-02-26T08:18:02;2.30;;;1.83;;
10170;SDS011;5127;50.922;6.988;2023-02-26T08:20:31;2.27;;;1.63;;
10170;SDS011;5127;50.922;6.988;2023-02-26T08:22:58;2.83;;;2.00;;
10170;SDS011;5127;50.922;6.988;2023-02-26T08:25:25;2.83;;;1.73;;
10170;SDS011;5127;50.922;6.988;2023-02-26T08:27:53;4.30;;;2.00;;
10170;SDS011;5127;50.922;6.988;2023-02-26T08:30:22;1.43;;;1.33;;
10170;SDS011;5127;50.922;6.988;2023-02-26T08:32:49;2.67;;;1.80;;
10170;SDS011;5127;50.922;6.988;2023-02-26T08:35:16;2.67;;;1.67;;
10170;SDS011;5127;50.922;6.988;2023-02-26T08:37:45;2.20;;;1.63;;
10170;SDS011;5127;50.922;6.988;2023-02-26T08:40:12;2.57;;;1.60;;
10170;SDS011;5127;50.922;6.988;2023-02-26T08:42:40;2.73;;;1.57;;
10170;SDS011;5127;50.922;6.988;2023-02-26T08:45:08;2.30;;;1.63;;
10170;SDS011;5127;50.922;6.988;2023-02-26T08:47:35;2.20;;;1.63;;
10170;SDS011;5127;50.922;6.988;2023-02-26T08:50:06;1.83;;;1.43;;
10170;SDS011;5127;50.922;6.988;2023-02-26T08:52:34;2.20;;;1.57;;
10170;SDS011;5127;50.922;6.988;2023-02-26T08:55:05;3.27;;;1.70;;
10170;SDS011;5127;50.922;6.988;2023-02-26T08:57:32;2.33;;;1.47;;
10170;SDS011;5127;50.922;6.988;2023-02-26T09:00:00;2.13;;;1.50;;
10170;SDS011;5127;50.922;6.988;2023-02-26T09:02:29;3.60;;;1.50;;
10170;SDS011;5127;50.922;6.988;2023-02-26T09:04:57;2.90;;;1.37;;
10170;SDS011;5127;50.922;6.988;2023-02-26T09:07:24;1.50;;;1.33;;
10170;SDS011;5127;50.922;6.988;2023-02-26T09:09:51;4.30;;;1.30;;
10170;SDS011;5127;50.922;6.988;2023-02-26T09:12:20;2.27;;;1.30;;
10170;SDS011;5127;50.922;6.988;2023-02-26T09:14:48;3.13;;;1.40;;
10170;SDS011;5127;50.922;6.988;2023-02-26T09:17:15;1.97;;;1.30;;
10170;SDS011;5127;50.922;6.988;2023-02-26T09:19:43;3.33;;;1.30;;
10170;SDS011;5127;50.922;6.988;2023-02-26T09:22:10;2.07;;;1.40;;
10170;SDS011;5127;50.922;6.988;2023-02-26T09:24:37;1.97;;;1.00;;
10170;SDS011;5127;50.922;6.988;2023-02-26T09:27:04;1.30;;;0.90;;
10170;SDS011;5127;50.922;6.988;2023-02-26T09:29:33;2.20;;;1.20;;
10170;SDS011;5127;50.922;6.988;2023-02-26T09:32:00;2.37;;;1.10;;
10170;SDS011;5127;50.922;6.988;2023-02-26T09:34:27;1.57;;;0.90;;
10170;SDS011;5127;50.922;6.988;2023-02-26T09:36:54;1.73;;;1.23;;
10170;SDS011;5127;50.922;6.988;2023-02-26T09:39:22;2.87;;;1.30;;
10170;SDS011;5127;50.922;6.988;2023-02-26T09:41:50;3.17;;;1.17;;
10170;SDS011;5127;50.922;6.988;2023-02-26T09:44:19;0.80;;;0.80;;
10170;SDS011;5127;50.922;6.988;2023-02-26T09:46:52;1.50;;;0.70;;
10170;SDS011;5127;50.922;6.988;2023-02-26T09:49:30;2.23;;;0.80;;
10170;SDS011;5127;50.922;6.988;2023-02-26T09:52:07;2.63;;;0.90;;
10170;SDS011;5127;50.922;6.988;2023-02-26T09:54:45;2.73;;;0.80;;
10170;SDS011;5127;50.922;6.988;2023-02-26T09:57:19;1.90;;;0.80;;
10170;SDS011;5127;50.922;6.988;2023-02-26T09:59:52;0.80;;;0.60;;
10170;SDS011;5127;50.922;6.988;2023-02-26T10:02:23;0.83;;;0.60;;
10170;SDS011;5127;50.922;6.988;2023-02-26T10:05:01;2.63;;;0.77;;
10170;SDS011;5127;50.922;6.988;2023-02-26T10:07:39;0.80;;;0.60;;
10170;SDS011;5127;50.922;6.988;2023-02-26T10:10:14;1.33;;;0.70;;
10170;SDS011;5127;50.922;6.988;2023-02-26T10:12:45;1.00;;;0.60;;
10170;SDS011;5127;50.922;6.988;2023-02-26T10:15:16;1.43;;;0.70;;
10170;SDS011;5127;50.922;6.988;2023-02-26T10:17:52;2.10;;;0.80;;
10170;SDS011;5127;50.922;6.988;2023-02-26T10:20:28;1.43;;;0.80;;
10170;SDS011;5127;50.922;6.988;2023-02-26T10:22:59;0.93;;;0.73;;
10170;SDS011;5127;50.922;6.988;2023-02-26T10:25:32;0.63;;;0.53;;
10170;SDS011;5127;50.922;6.988;2023-02-26T10:28:07;1.27;;;0.80;;
10170;SDS011;5127;50.922;6.988;2023-02-26T10:30:48;1.40;;;0.93;;
10170;SDS011;5127;50.922;6.988;2023-02-26T10:33:25;0.60;;;0.60;;
10170;SDS011;5127;50.922;6.988;2023-02-26T10:36:01;1.77;;;0.67;;
10170;SDS011;5127;50.922;6.988;2023-02-26T10:38:38;1.20;;;0.77;;
10170;SDS011;5127;50.922;6.988;2023-02-26T10:41:09;1.57;;;0.83;;
10170;SDS011;5127;50.922;6.988;2023-02-26T10:43:41;2.07;;;0.60;;
10170;SDS011;5127;50.922;6.988;2023-02-26T10:46:17;1.93;;;0.60;;
10170;SDS011;5127;50.922;6.988;2023-02-26T10:48:54;0.73;;;0.70;;
10170;SDS011;5127;50.922;6.988;2023-02-26T10:51:31;1.73;;;0.80;;
10170;SDS011;5127;50.922;6.988;2023-02-26T10:54:01;0.53;;;0.50;;
10170;SDS011;5127;50.922;6.988;2023-02-26T10:56:32;1.73;;;0.60;;
10170;SDS011;5127;50.922;6.988;2023-02-26T10:59:00;1.43;;;0.60;;
10170;SDS011;5127;50.922;6.988;2023-02-26T11:01:28;0.43;;;0.43;;
10170;SDS011;5127;50.922;6.988;2023-02-26T11:03:58;1.23;;;0.73;;
10170;SDS011;5127;50.922;6.988;2023-02-26T11:06:29;2.97;;;0.80;;
10170;SDS011;5127;50.922;6.988;2023-02-26T11:09:00;1.83;;;0.60;;
10170;SDS011;5127;50.922;6.988;2023-02-26T11:11:36;1.40;;;0.77;;
10170;SDS011;5127;50.922;6.988;2023-02-26T11:14:06;0.57;;;0.50;;
10170;SDS011;5127;50.922;6.988;2023-02-26T11:16:35;0.83;;;0.60;;
10170;SDS011;5127;50.922;6.988;2023-02-26T11:19:10;2.27;;;0.60;;
10170;SDS011;5127;50.922;6.988;2023-02-26T11:21:40;1.40;;;0.70;;
10170;SDS011;5127;50.922;6.988;2023-02-26T11:24:11;2.77;;;0.60;;
10170;SDS011;5127;50.922;6.988;2023-02-26T11:26:42;0.50;;;0.50;;
10170;SDS011;5127;50.922;6.988;2023-02-26T11:29:13;0.83;;;0.80;;
10170;SDS011;5127;50.922;6.988;2023-02-26T11:31:44;1.10;;;0.60;;
10170;SDS011;5127;50.922;6.988;2023-02-26T11:34:15;1.80;;;0.60;;
10170;SDS011;5127;50.922;6.988;2023-02-26T11:36:47;1.17;;;0.60;;
10170;SDS011;5127;50.922;6.988;2023-02-26T11:39:14;0.60;;;0.43;;
10170;SDS011;5127;50.922;6.988;2023-02-26T11:41:44;2.70;;;0.70;;
10170;SDS011;5127;50.922;6.988;2023-02-26T11:44:15;1.00;;;0.50;;
10170;SDS011;5127;50.922;6.988;2023-02-26T11:46:47;3.40;;;0.60;;
10170;SDS011;5127;50.922;6.988;2023-02-26T11:49:19;1.63;;;0.70;;
10170;SDS011;5127;50.922;6.988;2023-02-26T11:51:59;1.90;;;0.83;;
10170;SDS011;5127;50.922;6.988;2023-02-26T11:54:40;1.27;;;0.70;;
10170;SDS011;5127;50.922;6.988;2023-02-26T11:57:14;0.57;;;0.53;;
10170;SDS011;5127;50.922;6.988;2023-02-26T11:59:43;2.50;;;0.60;;
10170;SDS011;5127;50.922;6.988;2023-02-26T12:02:17;1.07;;;0.63;;
10170;SDS011;5127;50.922;6.988;2023-02-26T12:04:47;0.90;;;0.60;;
10170;SDS011;5127;50.922;6.988;2023-02-26T12:07:18;0.73;;;0.60;;
10170;SDS011;5127;50.922;6.988;2023-02-26T12:09:47;1.10;;;0.60;;
10170;SDS011;5127;50.922;6.988;2023-02-26T12:12:19;0.90;;;0.70;;
10170;SDS011;5127;50.922;6.988;2023-02-26T12:15:05;1.50;;;0.80;;
10170;SDS011;5127;50.922;6.988;2023-02-26T12:17:46;2.53;;;0.60;;
10170;SDS011;5127;50.922;6.988;2023-02-26T12:20:28;0.93;;;0.80;;
10170;SDS011;5127;50.922;6.988;2023-02-26T12:23:04;0.97;;;0.67;;
10170;SDS011;5127;50.922;6.988;2023-02-26T12:25:50;1.13;;;0.70;;
10170;SDS011;5127;50.922;6.988;2023-02-26T12:28:30;0.80;;;0.50;;
10170;SDS011;5127;50.922;6.988;2023-02-26T12:31:13;2.60;;;0.70;;
10170;SDS011;5127;50.922;6.988;2023-02-26T12:33:57;1.23;;;0.77;;
10170;SDS011;5127;50.922;6.988;2023-02-26T12:36:42;1.53;;;0.73;;
10170;SDS011;5127;50.922;6.988;2023-02-26T12:39:24;1.33;;;0.80;;
10170;SDS011;5127;50.922;6.988;2023-02-26T12:42:10;1.07;;;0.90;;
10170;SDS011;5127;50.922;6.988;2023-02-26T12:44:50;1.37;;;0.70;;
10170;SDS011;5127;50.922;6.988;2023-02-26T12:47:34;1.13;;;0.63;;
10170;SDS011;5127;50.922;6.988;2023-02-26T12:50:23;1.10;;;0.40;;
10170;SDS011;5127;50.922;6.988;2023-02-26T12:53:17;1.37;;;0.60;;
10170;SDS011;5127;50.922;6.988;2023-02-26T12:56:11;0.57;;;0.57;;
10170;SDS011;5127;50.922;6.988;2023-02-26T12:59:03;0.93;;;0.60;;
10170;SDS011;5127;50.922;6.988;2023-02-26T13:01:47;1.57;;;0.83;;
10170;SDS011;5127;50.922;6.988;2023-02-26T13:04:31;1.17;;;0.67;;
10170;SDS011;5127;50.922;6.988;2023-02-26T13:07:21;1.20;;;0.60;;
10170;SDS011;5127;50.922;6.988;2023-02-26T13:10:04;0.90;;;0.60;;
10170;SDS011;5127;50.922;6.988;2023-02-26T13:12:41;0.97;;;0.60;;
10170;SDS011;5127;50.922;6.988;2023-02-26T13:15:29;1.03;;;0.53;;
10170;SDS011;5127;50.922;6.988;2023-02-26T13:18:06;1.30;;;0.63;;
10170;SDS011;5127;50.922;6.988;2023-02-26T13:20:42;1.20;;;0.70;;
10170;SDS011;5127;50.922;6.988;2023-02-26T13:23:19;1.40;;;0.70;;
10170;SDS011;5127;50.922;6.988;2023-02-26T13:25:52;1.03;;;0.60;;
10170;SDS011;5127;50.922;6.988;2023-02-26T13:28:34;1.73;;;0.70;;
10170;SDS011;5127;50.922;6.988;2023-02-26T13:31:06;1.43;;;0.50;;
10170;SDS011;5127;50.922;6.988;2023-02-26T13:33:36;2.47;;;1.33;;
10170;SDS011;5127;50.922;6.988;2023-02-26T13:36:05;2.13;;;1.00;;
10170;SDS011;5127;50.922;6.988;2023-02-26T13:38:34;2.30;;;1.10;;
10170;SDS011;5127;50.922;6.988;2023-02-26T13:41:15;1.17;;;0.80;;
10170;SDS011;5127;50.922;6.988;2023-02-26T13:43:49;1.00;;;0.80;;
10170;SDS011;5127;50.922;6.988;2023-02-26T13:46:31;1.37;;;0.70;;
10170;SDS011;5127;50.922;6.988;2023-02-26T13:49:09;1.07;;;0.80;;
10170;SDS011;5127;50.922;6.988;2023-02-26T13:51:43;1.30;;;0.50;;
10170;SDS011;5127;50.922;6.988;2023-02-26T13:54:27;1.80;;;0.80;;
10170;SDS011;5127;50.922;6.988;2023-02-26T13:59:59;1.57;;;0.70;;
10170;SDS011;5127;50.922;6.988;2023-02-26T14:02:47;1.40;;;0.63;;
10170;SDS011;5127;50.922;6.988;2023-02-26T14:08:38;1.40;;;0.73;;
10170;SDS011;5127;50.922;6.988;2023-02-26T14:11:27;0.80;;;0.67;;
10170;SDS011;5127;50.922;6.988;2023-02-26T14:14:11;0.77;;;0.57;;
10170;SDS011;5127;50.922;6.988;2023-02-26T14:16:44;1.70;;;0.60;;
10170;SDS011;5127;50.922;6.988;2023-02-26T14:22:12;2.17;;;0.50;;
10170;SDS011;5127;50.922;6.988;2023-02-26T14:24:45;1.83;;;0.60;;
10170;SDS011;5127;50.922;6.988;2023-02-26T14:27:24;1.77;;;0.70;;
10170;SDS011;5127;50.922;6.988;2023-02-26T14:30:02;0.87;;;0.60;;
10170;SDS011;5127;50.922;6.988;2023-02-26T14:32:44;1.17;;;0.60;;
10170;SDS011;5127;50.922;6.988;2023-02-26T14:35:14;0.83;;;0.80;;
10170;SDS011;5127;50.922;6.988;2023-02-26T14:37:45;3.27;;;0.70;;
10170;SDS011;5127;50.922;6.988;2023-02-26T14:40:24;1.33;;;0.50;;
10170;SDS011;5127;50.922;6.988;2023-02-26T14:42:55;1.70;;;0.83;;
10170;SDS011;5127;50.922;6.988;2023-02-26T14:45:28;0.93;;;0.50;;
10170;SDS011;5127;50.922;6.988;2023-02-26T14:47:57;0.90;;;0.60;;
10170;SDS011;5127;50.922;6.988;2023-02-26T14:50:28;0.50;;;0.50;;
10170;SDS011;5127;50.922;6.988;2023-02-26T14:53:16;2.27;;;0.77;;
10170;SDS011;5127;50.922;6.988;2023-02-26T14:56:04;1.77;;;0.60;;
10170;SDS011;5127;50.922;6.988;2023-02-26T14:58:40;1.07;;;0.77;;
10170;SDS011;5127;50.922;6.988;2023-02-26T15:01:33;1.20;;;0.60;;
10170;SDS011;5127;50.922;6.988;2023-02-26T15:04:18;2.93;;;1.20;;
10170;SDS011;5127;50.922;6.988;2023-02-26T15:07:29;1.07;;;0.70;;
10170;SDS011;5127;50.922;6.988;2023-02-26T15:10:11;0.80;;;0.80;;
10170;SDS011;5127;50.922;6.988;2023-02-26T15:12:52;2.20;;;0.80;;
10170;SDS011;5127;50.922;6.988;2023-02-26T15:15:44;1.90;;;0.70;;
10170;SDS011;5127;50.922;6.988;2023-02-26T15:18:28;1.50;;;0.67;;
10170;SDS011;5127;50.922;6.988;2023-02-26T15:21:12;0.73;;;0.60;;
10170;SDS011;5127;50.922;6.988;2023-02-26T15:23:47;0.87;;;0.60;;
10170;SDS011;5127;50.922;6.988;2023-02-26T15:26:18;1.30;;;0.80;;
10170;SDS011;5127;50.922;6.988;2023-02-26T15:28:49;1.17;;;0.90;;
10170;SDS011;5127;50.922;6.988;2023-02-26T15:31:18;2.27;;;0.90;;
10170;SDS011;5127;50.922;6.988;2023-02-26T15:33:48;2.40;;;0.80;;
10170;SDS011;5127;50.922;6.988;2023-02-26T15:36:17;1.23;;;0.70;;
10170;SDS011;5127;50.922;6.988;2023-02-26T15:38:47;1.90;;;0.70;;
10170;SDS011;5127;50.922;6.988;2023-02-26T15:41:19;0.87;;;0.53;;
10170;SDS011;5127;50.922;6.988;2023-02-26T15:43:49;1.00;;;0.63;;
10170;SDS011;5127;50.922;6.988;2023-02-26T15:46:19;2.03;;;0.80;;